createdAt,value
2022-11-24T00:01:15.827Z,27.52
2022-11-24T00:03:44.487Z,31.40
2022-11-24T00:06:14.531Z,25.25
2022-11-24T00:08:43.913Z,35.08
2022-11-24T00:11:14.047Z,24.48
2022-11-24T00:13:42.918Z,28.40
2022-11-24T00:16:16.071Z,35.55
2022-11-24T00:18:45.666Z,37.85
2022-11-24T00:21:13.333Z,28.40
2022-11-24T00:23:41.502Z,29.92
2022-11-24T00:26:14.404Z,28.75
2022-11-24T00:28:42.775Z,47.25
2022-11-24T00:31:24.781Z,15.48
2022-11-24T00:33:55.248Z,36.78
2022-11-24T00:36:23.926Z,15.02
2022-11-24T00:38:55.750Z,29.52
2022-11-24T00:41:24.974Z,18.08
2022-11-24T00:43:53.097Z,44.67
2022-11-24T00:46:21.008Z,30.73
2022-11-24T00:48:49.149Z,18.80
2022-11-24T00:51:17.833Z,35.55
2022-11-24T00:53:45.862Z,25.42
2022-11-24T00:56:13.889Z,22.25
2022-11-24T00:58:42.921Z,38.88
2022-11-24T01:01:14.837Z,27.33
2022-11-24T01:03:43.000Z,39.97
2022-11-24T01:06:12.848Z,38.50
2022-11-24T01:08:41.046Z,16.92
2022-11-24T01:11:23.885Z,59.13
2022-11-24T01:13:56.213Z,37.38
2022-11-24T01:16:25.366Z,43.55
2022-11-24T01:18:53.139Z,64.93
2022-11-24T01:21:21.243Z,13.70
2022-11-24T01:23:49.207Z,38.13
2022-11-24T01:26:19.974Z,21.48
2022-11-24T01:28:48.118Z,23.40
2022-11-24T01:31:17.029Z,20.60
2022-11-24T01:33:44.977Z,39.60
2022-11-24T01:36:12.940Z,69.25
2022-11-24T01:38:40.802Z,22.55
2022-11-24T01:41:17.784Z,38.03
2022-11-24T01:43:45.969Z,26.40
2022-11-24T01:46:36.314Z,21.13
2022-11-24T01:49:15.127Z,26.00
2022-11-24T01:51:45.918Z,33.75
2022-11-24T01:54:17.222Z,25.13
2022-11-24T01:56:49.276Z,33.80
2022-11-24T01:59:19.234Z,42.90
2022-11-24T02:01:49.336Z,29.05
2022-11-24T02:04:23.909Z,26.90
2022-11-24T02:06:53.224Z,35.67
2022-11-24T02:09:39.580Z,27.88
2022-11-24T02:12:07.542Z,24.08
2022-11-24T02:14:36.762Z,9.35
2022-11-24T02:17:04.837Z,41.78
2022-11-24T02:19:43.704Z,31.73
2022-11-24T02:22:32.432Z,26.30
2022-11-24T02:25:04.725Z,4.10
2022-11-24T02:27:32.412Z,19.13
2022-11-24T02:30:00.392Z,55.63
2022-11-24T02:32:28.794Z,35.15
2022-11-24T02:35:05.426Z,35.20
2022-11-24T02:37:33.089Z,35.03
2022-11-24T02:40:00.836Z,29.98
2022-11-24T02:42:32.571Z,22.83
2022-11-24T02:45:01.972Z,9.25
2022-11-24T02:47:29.668Z,15.93
2022-11-24T02:49:57.508Z,36.60
2022-11-24T02:52:25.075Z,42.70
2022-11-24T02:54:52.923Z,26.58
2022-11-24T02:57:22.148Z,33.17
2022-11-24T02:59:49.852Z,26.98
2022-11-24T03:02:17.644Z,13.13
2022-11-24T03:04:45.458Z,41.83
2022-11-24T03:07:13.212Z,20.42
2022-11-24T03:09:43.970Z,28.30
2022-11-24T03:12:11.654Z,34.72
2022-11-24T03:14:39.587Z,32.85
2022-11-24T03:17:07.551Z,13.93
2022-11-24T03:19:35.398Z,33.78
2022-11-24T03:22:03.281Z,44.97
2022-11-24T03:24:32.134Z,17.05
2022-11-24T03:27:00.276Z,38.20
2022-11-24T03:29:29.177Z,44.50
2022-11-24T03:31:56.713Z,53.90
2022-11-24T03:34:24.857Z,46.80
2022-11-24T03:36:52.569Z,29.70
2022-11-24T03:39:20.341Z,33.03
2022-11-24T03:41:48.254Z,24.63
2022-11-24T03:44:15.861Z,42.97
2022-11-24T03:46:43.693Z,11.48
2022-11-24T03:49:11.595Z,39.00
2022-11-24T03:51:40.423Z,25.33
2022-11-24T03:54:08.305Z,35.38
2022-11-24T03:56:36.066Z,30.15
2022-11-24T03:59:03.909Z,17.85
2022-11-24T04:01:31.992Z,29.65
2022-11-24T04:03:59.747Z,21.05
2022-11-24T04:06:27.311Z,35.72
2022-11-24T04:08:55.138Z,27.25
2022-11-24T04:11:42.532Z,31.15
2022-11-24T04:14:13.575Z,25.30
2022-11-24T04:16:41.766Z,22.95
2022-11-24T04:19:09.386Z,38.72
2022-11-24T04:21:37.251Z,30.05
2022-11-24T04:24:05.993Z,29.63
2022-11-24T04:26:33.896Z,29.70
2022-11-24T04:29:02.830Z,39.60
2022-11-24T04:31:30.451Z,30.02
2022-11-24T04:34:01.206Z,17.10
2022-11-24T04:36:28.731Z,35.60
2022-11-24T04:39:19.976Z,19.42
2022-11-24T04:41:44.095Z,16.05
2022-11-24T04:44:11.723Z,41.50
2022-11-24T04:46:39.198Z,37.88
2022-11-24T04:49:06.593Z,19.42
2022-11-24T04:51:34.301Z,41.53
2022-11-24T04:54:02.020Z,43.67
2022-11-24T04:56:29.976Z,24.23
2022-11-24T04:58:57.845Z,36.42
2022-11-24T05:01:25.954Z,22.67
2022-11-24T05:03:57.462Z,23.50
2022-11-24T05:06:25.693Z,27.55
2022-11-24T05:08:54.259Z,24.65
2022-11-24T05:11:22.450Z,37.42
2022-11-24T05:13:50.157Z,33.90
2022-11-24T05:16:18.765Z,28.58
2022-11-24T05:18:46.676Z,14.50
2022-11-24T05:21:14.470Z,51.63
2022-11-24T05:23:43.155Z,31.55
2022-11-24T05:26:10.913Z,46.47
2022-11-24T05:28:39.410Z,29.63
2022-11-24T05:31:07.144Z,65.00
2022-11-24T05:33:35.392Z,16.27
2022-11-24T05:36:05.177Z,34.97
2022-11-24T05:38:33.208Z,32.90
2022-11-24T05:41:05.575Z,45.72
2022-11-24T05:43:33.402Z,48.55
2022-11-24T05:46:02.206Z,33.53
2022-11-24T05:48:30.100Z,40.60
2022-11-24T05:50:58.238Z,58.33
2022-11-24T05:53:27.102Z,36.10
2022-11-24T05:55:56.000Z,42.95
2022-11-24T05:58:23.694Z,73.88
2022-11-24T06:00:51.215Z,61.53
2022-11-24T06:03:18.800Z,55.58
2022-11-24T06:05:47.353Z,22.77
2022-11-24T06:08:14.787Z,16.95
2022-11-24T06:10:42.367Z,35.17
2022-11-24T06:13:10.340Z,26.80
2022-11-24T06:15:38.647Z,26.40
2022-11-24T06:18:05.976Z,28.75
2022-11-24T06:20:33.435Z,19.80
2022-11-24T06:23:02.068Z,20.05
2022-11-24T06:25:30.342Z,27.42
2022-11-24T06:27:58.187Z,43.22
2022-11-24T06:30:25.809Z,25.33
2022-11-24T06:32:55.650Z,22.65
2022-11-24T06:35:23.531Z,43.05
2022-11-24T06:37:51.402Z,18.15
2022-11-24T06:40:18.872Z,34.58
2022-11-24T06:42:51.610Z,22.73
2022-11-24T06:45:19.263Z,54.60
2022-11-24T06:47:47.452Z,23.65
2022-11-24T06:50:15.573Z,36.85
2022-11-24T06:52:43.628Z,34.25
2022-11-24T06:55:11.256Z,32.30
2022-11-24T06:57:38.811Z,38.40
2022-11-24T07:00:08.069Z,33.75
2022-11-24T07:02:36.052Z,43.65
2022-11-24T07:05:05.132Z,27.92
2022-11-24T07:07:32.755Z,23.52
2022-11-24T07:10:00.558Z,58.20
2022-11-24T07:12:29.361Z,51.65
2022-11-24T07:14:56.869Z,56.70
2022-11-24T07:17:24.505Z,57.42
2022-11-24T07:19:52.039Z,34.35
2022-11-24T07:22:19.571Z,52.45
2022-11-24T07:24:47.875Z,69.13
2022-11-24T07:27:15.557Z,76.90
2022-11-24T07:29:43.092Z,74.95
2022-11-24T07:32:11.960Z,28.58
2022-11-24T07:34:39.731Z,55.50
2022-11-24T07:37:08.180Z,71.65
2022-11-24T07:39:36.044Z,69.03
2022-11-24T07:42:05.187Z,37.78
2022-11-24T07:44:33.657Z,40.33
2022-11-24T07:47:01.679Z,92.55
2022-11-24T07:49:30.631Z,53.75
2022-11-24T07:51:58.547Z,59.08
2022-11-24T07:54:26.234Z,45.85
2022-11-24T07:56:53.896Z,45.88
2022-11-24T07:59:22.044Z,32.83
2022-11-24T08:01:49.584Z,46.65
2022-11-24T08:04:17.449Z,47.92
2022-11-24T08:06:47.559Z,45.25
2022-11-24T08:11:43.543Z,62.47
2022-11-24T08:14:11.248Z,58.90
2022-11-24T08:16:39.618Z,66.15
2022-11-24T08:19:08.407Z,38.67
2022-11-24T08:21:36.229Z,47.67
2022-11-24T08:24:04.819Z,49.58
2022-11-24T08:26:32.545Z,44.88
2022-11-24T08:29:01.124Z,44.22
2022-11-24T08:31:34.044Z,51.67
2022-11-24T08:34:03.833Z,37.22
2022-11-24T08:36:31.467Z,48.70
2022-11-24T08:39:00.375Z,39.95
2022-11-24T08:41:28.478Z,73.30
2022-11-24T08:43:56.463Z,52.78
2022-11-24T08:46:24.374Z,44.35
2022-11-24T08:48:53.490Z,48.08
2022-11-24T08:51:23.590Z,58.35
2022-11-24T08:53:55.971Z,58.55
2022-11-24T08:56:23.797Z,47.08
2022-11-24T08:58:51.654Z,42.38
2022-11-24T09:01:19.286Z,38.95
2022-11-24T09:03:50.651Z,59.35
2022-11-24T09:06:23.401Z,48.90
2022-11-24T09:08:51.306Z,58.70
2022-11-24T09:11:18.768Z,78.10
2022-11-24T09:13:46.706Z,43.33
2022-11-24T09:16:17.515Z,73.82
2022-11-24T09:18:45.594Z,46.70
2022-11-24T09:21:21.111Z,61.15
2022-11-24T09:23:51.174Z,66.53
2022-11-24T09:26:29.579Z,45.00
2022-11-24T09:28:58.483Z,39.38
2022-11-24T09:31:31.296Z,57.53
2022-11-24T09:33:59.631Z,43.78
2022-11-24T09:36:27.338Z,33.60
2022-11-24T09:38:55.198Z,64.82
2022-11-24T09:41:31.741Z,31.85
2022-11-24T09:44:24.505Z,41.60
2022-11-24T09:47:21.940Z,39.75
2022-11-24T09:50:06.819Z,66.35
2022-11-24T09:52:42.607Z,27.00
2022-11-24T09:55:47.462Z,75.43
2022-11-24T09:58:42.655Z,50.33
2022-11-24T10:01:17.710Z,29.85
2022-11-24T10:03:51.915Z,43.75
2022-11-24T10:07:02.102Z,31.88
2022-11-24T10:09:49.046Z,42.70
2022-11-24T10:13:01.133Z,31.60
2022-11-24T10:16:08.096Z,37.80
2022-11-24T10:18:42.880Z,34.47
2022-11-24T10:21:33.246Z,26.77
2022-11-24T10:24:16.444Z,32.20
2022-11-24T10:27:01.988Z,58.83
2022-11-24T10:29:40.184Z,54.30
2022-11-24T10:32:21.670Z,52.63
2022-11-24T10:34:52.298Z,33.78
2022-11-24T10:37:32.912Z,26.67
2022-11-24T10:43:23.203Z,36.83
2022-11-24T10:45:50.878Z,29.17
2022-11-24T10:48:25.640Z,41.92
2022-11-24T10:51:02.260Z,26.25
2022-11-24T10:53:35.021Z,23.35
2022-11-24T10:56:04.633Z,23.77
2022-11-24T10:58:38.019Z,41.28
2022-11-24T11:01:15.451Z,30.70
2022-11-24T11:04:01.775Z,32.70
2022-11-24T11:06:32.583Z,50.33
2022-11-24T11:09:09.481Z,51.08
2022-11-24T11:11:40.186Z,27.60
2022-11-24T11:14:13.083Z,52.97
2022-11-24T11:16:42.984Z,57.17
2022-11-24T11:19:52.372Z,81.63
2022-11-24T11:22:22.046Z,39.22
2022-11-24T11:25:22.677Z,38.47
2022-11-24T11:27:51.985Z,38.15
2022-11-24T11:36:16.664Z,40.40
2022-11-24T11:38:45.795Z,33.35
2022-11-24T11:41:26.056Z,23.38
2022-11-24T11:44:04.926Z,41.25
2022-11-24T11:46:34.096Z,36.40
2022-11-24T11:49:03.214Z,42.90
2022-11-24T11:51:50.994Z,56.58
2022-11-24T11:54:35.502Z,38.95
2022-11-24T11:57:08.447Z,45.72
2022-11-24T12:00:04.872Z,33.55
2022-11-24T12:02:53.098Z,51.13
2022-11-24T12:08:10.309Z,52.13
2022-11-24T12:10:59.362Z,34.22
2022-11-24T12:13:56.214Z,39.67
2022-11-24T12:16:41.745Z,43.50
2022-11-24T12:19:52.340Z,50.65
2022-11-24T12:22:33.055Z,40.00
2022-11-24T12:25:23.146Z,35.70
2022-11-24T12:28:15.370Z,32.88
2022-11-24T12:30:54.586Z,52.50
2022-11-24T12:33:44.020Z,42.38
2022-11-24T12:36:25.083Z,42.58
2022-11-24T12:39:14.091Z,29.08
2022-11-24T12:42:10.637Z,48.63
2022-11-24T12:44:43.817Z,71.70
2022-11-24T12:47:12.303Z,26.92
2022-11-24T12:49:50.295Z,33.60
2022-11-24T12:52:18.543Z,29.75
2022-11-24T12:54:46.393Z,40.20
2022-11-24T12:57:56.027Z,53.00
2022-11-24T13:00:30.890Z,38.13
2022-11-24T13:03:14.068Z,46.22
2022-11-24T13:05:49.999Z,30.88
2022-11-24T13:08:17.769Z,39.63
2022-11-24T13:10:57.503Z,32.28
2022-11-24T13:13:48.587Z,45.10
2022-11-24T13:19:20.539Z,31.13
2022-11-24T13:22:12.488Z,32.78
2022-11-24T13:24:43.185Z,38.00
2022-11-24T13:27:17.013Z,32.72
2022-11-24T13:29:53.378Z,37.25
2022-11-24T13:32:32.448Z,40.40
2022-11-24T13:35:14.873Z,34.75
2022-11-24T13:37:42.411Z,25.65
2022-11-24T13:40:13.540Z,43.75
2022-11-24T13:43:01.627Z,33.75
2022-11-24T13:45:50.310Z,49.33
2022-11-24T13:48:22.360Z,25.92
2022-11-24T13:50:51.472Z,28.75
2022-11-24T13:53:35.458Z,34.90
2022-11-24T13:56:18.009Z,29.23
2022-11-24T14:01:24.567Z,28.40
2022-11-24T14:04:31.108Z,31.88
2022-11-24T14:07:07.906Z,30.05
2022-11-24T14:09:51.499Z,19.00
2022-11-24T14:12:23.612Z,42.30
2022-11-24T14:14:53.095Z,25.85
2022-11-24T14:17:28.577Z,24.90
2022-11-24T14:19:57.536Z,27.70
2022-11-24T14:22:34.238Z,30.55
2022-11-24T14:25:02.608Z,31.42
2022-11-24T14:27:40.171Z,31.83
2022-11-24T14:30:12.445Z,32.47
2022-11-24T14:32:40.761Z,25.70
2022-11-24T14:35:25.804Z,27.23
2022-11-24T14:37:53.535Z,23.90
2022-11-24T14:40:39.786Z,24.40
2022-11-24T14:43:16.681Z,25.08
2022-11-24T14:45:59.466Z,21.85
2022-11-24T14:48:49.245Z,19.92
2022-11-24T14:51:31.470Z,19.45
2022-11-24T14:54:02.152Z,34.00
2022-11-24T14:56:39.607Z,25.83
2022-11-24T14:59:26.989Z,20.83
2022-11-24T15:01:54.825Z,36.53
2022-11-24T15:05:02.904Z,29.23
2022-11-24T15:07:31.697Z,30.25
2022-11-24T15:10:04.322Z,35.30
2022-11-24T15:12:40.258Z,30.23
2022-11-24T15:15:20.522Z,48.70
2022-11-24T15:17:57.111Z,16.73
2022-11-24T15:20:30.442Z,16.02
2022-11-24T15:23:16.627Z,43.75
2022-11-24T15:25:44.330Z,19.50
2022-11-24T15:28:12.448Z,39.88
2022-11-24T15:30:40.168Z,25.63
2022-11-24T15:33:16.755Z,24.98
2022-11-24T15:35:44.796Z,25.20
2022-11-24T15:38:12.672Z,23.52
2022-11-24T15:40:42.149Z,24.65
2022-11-24T15:43:21.341Z,20.65
2022-11-24T15:45:49.082Z,22.88
2022-11-24T15:48:18.354Z,26.40
2022-11-24T15:50:47.799Z,14.48
2022-11-24T15:53:30.823Z,19.88
2022-11-24T15:55:58.906Z,14.38
2022-11-24T15:58:26.733Z,34.53
2022-11-24T16:00:54.414Z,17.80
2022-11-24T16:03:46.409Z,13.55
2022-11-24T16:06:15.853Z,16.25
2022-11-24T16:08:46.904Z,23.00
2022-11-24T16:11:14.656Z,13.23
2022-11-24T16:13:46.854Z,22.55
2022-11-24T16:16:18.031Z,12.95
2022-11-24T16:18:45.999Z,6.05
2022-11-24T16:21:13.885Z,15.80
2022-11-24T16:23:41.467Z,22.58
2022-11-24T16:26:10.034Z,10.13
2022-11-24T16:28:40.812Z,22.17
2022-11-24T16:31:08.492Z,12.18
2022-11-24T16:33:38.713Z,11.30
2022-11-24T16:38:36.629Z,21.45
2022-11-24T16:41:04.447Z,21.88
2022-11-24T16:43:32.334Z,12.88
2022-11-24T16:46:17.954Z,24.35
2022-11-24T16:48:47.699Z,13.20
2022-11-24T16:51:16.219Z,15.68
2022-11-24T16:53:44.283Z,18.58
2022-11-24T16:56:12.041Z,20.60
2022-11-24T16:58:40.782Z,14.82
2022-11-24T17:01:11.111Z,9.35
2022-11-24T17:03:41.754Z,12.82
2022-11-24T17:06:13.658Z,14.85
2022-11-24T17:08:41.629Z,7.80
2022-11-24T17:11:10.597Z,10.07
2022-11-24T17:13:38.204Z,17.85
2022-11-24T17:16:06.478Z,9.02
2022-11-24T17:18:34.466Z,23.58
2022-11-24T17:21:07.718Z,5.65
2022-11-24T17:23:35.581Z,7.55
2022-11-24T17:26:05.298Z,2.60
2022-11-24T17:28:33.185Z,14.93
2022-11-24T17:31:22.620Z,3.35
2022-11-24T17:33:50.650Z,5.25
2022-11-24T17:36:18.258Z,4.97
2022-11-24T17:38:46.042Z,3.83
2022-11-24T17:41:13.664Z,3.35
2022-11-24T17:43:41.383Z,4.53
2022-11-24T17:46:10.475Z,2.40
2022-11-24T17:48:38.616Z,2.63
2022-11-24T17:51:10.830Z,4.40
2022-11-24T17:53:39.329Z,2.50
2022-11-24T17:56:08.121Z,2.97
2022-11-24T17:58:42.931Z,11.18
2022-11-24T18:01:11.909Z,6.13
2022-11-24T18:03:40.784Z,15.10
2022-11-24T18:06:09.207Z,14.75
2022-11-24T18:08:37.790Z,9.50
2022-11-24T18:11:09.700Z,4.15
2022-11-24T18:16:28.071Z,3.38
2022-11-24T18:19:07.924Z,3.85
2022-11-24T18:21:36.447Z,2.90
2022-11-24T18:24:04.251Z,3.00
2022-11-24T18:26:32.374Z,11.18
2022-11-24T18:29:00.325Z,7.50
2022-11-24T18:31:29.501Z,19.35
2022-11-24T18:33:57.336Z,3.22
2022-11-24T18:36:29.939Z,7.40
2022-11-24T18:39:08.750Z,15.20
2022-11-24T18:41:36.606Z,15.77
2022-11-24T18:44:07.793Z,9.73
2022-11-24T18:46:38.474Z,22.15
2022-11-24T18:49:07.376Z,11.02
2022-11-24T18:51:35.884Z,14.18
2022-11-24T18:54:06.467Z,16.67
2022-11-24T18:56:34.380Z,3.83
2022-11-24T18:59:02.286Z,12.43
2022-11-24T19:01:30.366Z,26.35
2022-11-24T19:03:59.289Z,19.20
2022-11-24T19:06:34.760Z,15.73
2022-11-24T19:09:03.921Z,6.10
2022-11-24T19:11:35.596Z,11.30
2022-11-24T19:14:03.835Z,19.80
2022-11-24T19:16:31.881Z,6.35
2022-11-24T19:19:00.389Z,17.63
2022-11-24T19:21:28.794Z,11.43
2022-11-24T19:24:01.210Z,6.43
2022-11-24T19:26:32.301Z,12.65
2022-11-24T19:29:00.226Z,12.82
2022-11-24T19:31:28.095Z,18.27
2022-11-24T19:33:58.017Z,3.88
2022-11-24T19:36:26.529Z,21.17
2022-11-24T19:38:57.938Z,1.95
2022-11-24T19:41:26.958Z,2.55
2022-11-24T19:43:55.316Z,14.63
2022-11-24T19:46:26.370Z,18.25
2022-11-24T19:48:56.306Z,11.75
2022-11-24T19:51:27.221Z,11.25
2022-11-24T19:53:55.255Z,4.70
2022-11-24T19:56:27.511Z,17.83
2022-11-24T19:58:55.960Z,6.18
2022-11-24T20:01:28.068Z,32.47
2022-11-24T20:04:23.643Z,14.77
2022-11-24T20:06:51.762Z,11.23
2022-11-24T20:09:21.924Z,11.20
2022-11-24T20:11:49.996Z,10.30
2022-11-24T20:14:22.130Z,22.60
2022-11-24T20:16:50.160Z,18.35
2022-11-24T20:19:18.519Z,4.53
2022-11-24T20:21:47.936Z,2.13
2022-11-24T20:24:17.019Z,12.07
2022-11-24T20:26:48.293Z,2.60
2022-11-24T20:29:16.595Z,2.03
2022-11-24T20:31:46.032Z,2.47
2022-11-24T20:34:13.949Z,2.60
2022-11-24T20:36:44.686Z,2.13
2022-11-24T20:39:17.250Z,3.17
2022-11-24T20:41:45.084Z,13.10
2022-11-24T20:44:17.080Z,22.75
2022-11-24T20:46:46.658Z,3.22
2022-11-24T20:49:17.761Z,2.78
2022-11-24T20:51:47.896Z,6.95
2022-11-24T20:54:18.188Z,2.10
2022-11-24T20:56:46.575Z,2.05
2022-11-24T20:59:15.802Z,2.58
2022-11-24T21:01:45.647Z,2.28
2022-11-24T21:04:15.735Z,3.40
2022-11-24T21:06:43.952Z,3.00
2022-11-24T21:09:11.994Z,2.72
2022-11-24T21:11:40.140Z,13.70
2022-11-24T21:14:08.306Z,3.85
2022-11-24T21:16:38.254Z,15.38
2022-11-24T21:19:07.193Z,30.25
2022-11-24T21:21:35.618Z,2.50
2022-11-24T21:24:04.664Z,3.22
2022-11-24T21:26:32.603Z,3.33
2022-11-24T21:29:00.417Z,4.88
2022-11-24T21:31:28.189Z,1.30
2022-11-24T21:33:55.970Z,2.83
2022-11-24T21:36:25.851Z,1.80
2022-11-24T21:38:58.784Z,3.38
2022-11-24T21:41:29.088Z,3.97
2022-11-24T21:46:24.734Z,1.77
2022-11-24T21:48:52.620Z,3.97
2022-11-24T21:51:21.828Z,2.35
2022-11-24T21:53:49.985Z,1.83
2022-11-24T21:56:20.088Z,1.98
2022-11-24T21:58:48.753Z,1.98
2022-11-24T22:01:19.213Z,3.60
2022-11-24T22:03:47.338Z,1.92
2022-11-24T22:06:15.341Z,1.80
2022-11-24T22:08:43.215Z,2.58
2022-11-24T22:11:15.426Z,2.38
2022-11-24T22:13:43.714Z,2.15
2022-11-24T22:16:12.734Z,3.13
2022-11-24T22:18:42.453Z,2.45
2022-11-24T22:21:13.250Z,2.75
2022-11-24T22:23:41.234Z,2.20
2022-11-24T22:26:21.033Z,2.75
2022-11-24T22:28:48.996Z,2.15
2022-11-24T22:31:19.598Z,2.45
2022-11-24T22:33:47.578Z,11.25
2022-11-24T22:36:17.130Z,9.00
2022-11-24T22:38:45.175Z,3.15
2022-11-24T22:41:19.217Z,1.73
2022-11-24T22:43:48.540Z,1.83
2022-11-24T22:46:17.471Z,2.03
2022-11-24T22:48:46.111Z,2.10
2022-11-24T22:51:19.038Z,1.98
2022-11-24T22:53:50.302Z,1.50
2022-11-24T22:56:18.535Z,3.15
2022-11-24T22:58:46.771Z,1.40
2022-11-24T23:01:16.677Z,3.50
2022-11-24T23:03:44.854Z,2.10
2022-11-24T23:06:14.054Z,2.72
2022-11-24T23:08:41.766Z,2.10
2022-11-24T23:11:29.129Z,2.42
2022-11-24T23:14:03.188Z,5.30
2022-11-24T23:16:31.384Z,3.10
2022-11-24T23:18:59.286Z,1.05
2022-11-24T23:21:29.773Z,2.75
2022-11-24T23:24:01.566Z,2.55
2022-11-24T23:26:30.321Z,0.98
2022-11-24T23:28:58.229Z,1.98
2022-11-24T23:31:29.918Z,1.70
2022-11-24T23:34:02.060Z,2.17
2022-11-24T23:36:30.237Z,3.25
2022-11-24T23:38:58.092Z,2.08
2022-11-24T23:41:26.625Z,1.90
2022-11-24T23:43:54.419Z,2.20
2022-11-24T23:46:24.239Z,2.63
2022-11-24T23:48:52.868Z,3.28
2022-11-24T23:51:22.373Z,1.50
2022-11-24T23:53:51.841Z,2.08
2022-11-24T23:56:23.948Z,2.58
2022-11-24T23:58:51.911Z,2.53
